Time;durP1;ratioP1;P1;durP2;ratioP2;P2;SDS_P1;SDS_P2;PMS_P1;PMS_P2;Temp;Humidity;BMP_temperature;BMP_pressure;BME280_temperature;BME280_humidity;BME280_pressure;Samples;Min_cycle;Max_cycle;Signal;HPM_P1;HPM_P2
2023/09/23 00:04:16;;;;;;;5.43;3.90;;;;;;;16.97;72.21;100762.47;10528109;28;20047;-83
2023/09/23 00:09:18;;;;;;;5.93;4.70;;;;;;;16.87;72.64;100753.34;10514787;28;20041;-83
2023/09/23 00:14:21;;;;;;;7.20;4.15;;;;;;;16.83;72.84;100752.34;10482182;28;20458;-83
2023/09/23 00:19:23;;;;;;;7.03;4.47;;;;;;;16.80;72.75;100747.41;10436569;28;20499;-83
2023/09/23 00:24:25;;;;;;;6.63;4.35;;;;;;;16.76;72.83;100745.63;10480710;28;20037;-83
2023/09/23 00:29:27;;;;;;;7.68;4.40;;;;;;;16.77;72.49;100736.16;10481228;28;20421;-83
2023/09/23 00:34:30;;;;;;;7.07;4.32;;;;;;;16.85;72.19;100738.16;10505237;28;20585;-83
2023/09/23 00:39:39;;;;;;;6.97;4.47;;;;;;;16.74;72.22;100736.81;10498562;28;20044;-83
2023/09/23 00:44:41;;;;;;;10.60;4.60;;;;;;;16.69;72.25;100740.53;10486111;28;20478;-85
2023/09/23 00:49:44;;;;;;;5.28;3.75;;;;;;;16.74;71.93;100728.50;10458720;28;20475;-85
2023/09/23 00:54:49;;;;;;;5.93;4.05;;;;;;;16.74;71.66;100720.19;10459826;28;20543;-83
2023/09/23 00:59:53;;;;;;;5.68;3.72;;;;;;;16.75;71.70;100724.59;10489178;28;20041;-83
2023/09/23 01:04:58;;;;;;;6.88;4.32;;;;;;;16.77;71.24;100723.13;10517718;28;20414;-83
2023/09/23 01:10:00;;;;;;;6.10;4.22;;;;;;;16.79;71.31;100714.47;10527047;28;20047;-83
2023/09/23 01:15:03;;;;;;;5.38;3.63;;;;;;;16.77;71.35;100723.13;10515060;28;20037;-83
2023/09/23 01:20:11;;;;;;;8.50;3.42;;;;;;;16.81;70.84;100712.22;10498195;28;20520;-84
2023/09/23 01:25:14;;;;;;;8.30;4.38;;;;;;;16.75;70.98;100716.28;10476225;28;20086;-83
2023/09/23 01:30:16;;;;;;;8.15;4.25;;;;;;;16.71;71.06;100707.78;10475089;28;20037;-83
2023/09/23 01:35:20;;;;;;;7.45;4.05;;;;;;;16.68;71.14;100710.38;10446608;28;20050;-84
2023/09/23 01:40:24;;;;;;;6.75;4.32;;;;;;;16.70;71.28;100708.13;10515898;28;20044;-83
2023/09/23 01:45:27;;;;;;;8.80;4.38;;;;;;;16.64;71.33;100698.25;10516188;28;20552;-83
2023/09/23 01:50:29;;;;;;;7.38;4.32;;;;;;;16.55;71.46;100709.31;10532812;28;20047;-83
2023/09/23 01:55:31;;;;;;;6.78;3.80;;;;;;;16.46;72.65;100695.41;10514064;28;20083;-84
2023/09/23 02:00:36;;;;;;;6.95;4.65;;;;;;;16.36;72.40;100692.13;10513555;28;20703;-84
2023/09/23 02:05:39;;;;;;;8.60;4.80;;;;;;;16.26;73.22;100694.03;10509703;28;20416;-82
2023/09/23 02:10:44;;;;;;;5.32;3.70;;;;;;;16.23;73.16;100685.53;10525164;28;20572;-82
2023/09/23 02:15:47;;;;;;;6.85;4.68;;;;;;;16.21;72.95;100680.31;10484310;28;20051;-83
2023/09/23 02:20:50;;;;;;;10.43;5.03;;;;;;;16.15;73.34;100675.25;10456295;28;20538;-83
2023/09/23 02:25:52;;;;;;;6.28;4.43;;;;;;;16.09;73.95;100673.72;10472670;28;20407;-83
2023/09/23 02:30:55;;;;;;;10.43;5.55;;;;;;;16.06;73.52;100677.13;10494334;28;20368;-84
2023/09/23 02:36:01;;;;;;;7.30;4.85;;;;;;;16.02;74.54;100681.69;10490609;28;20040;-83
2023/09/23 02:41:04;;;;;;;6.72;4.30;;;;;;;16.01;74.18;100680.06;10487962;28;20037;-83
2023/09/23 02:46:06;;;;;;;5.78;4.22;;;;;;;15.97;74.28;100677.09;10478143;28;20044;-83
2023/09/23 02:51:12;;;;;;;7.15;4.60;;;;;;;15.91;74.57;100679.16;10488260;28;20045;-82
2023/09/23 02:56:16;;;;;;;7.30;4.90;;;;;;;15.86;75.06;100678.50;10507933;28;20053;-83
2023/09/23 03:01:18;;;;;;;7.53;4.82;;;;;;;15.75;75.12;100674.34;10498756;28;20044;-83
2023/09/23 03:06:25;;;;;;;6.60;5.22;;;;;;;15.68;75.40;100674.78;10506634;28;20045;-83
2023/09/23 03:11:32;;;;;;;6.18;4.93;;;;;;;15.61;76.05;100671.63;10438579;28;20424;-83
2023/09/23 03:16:36;;;;;;;6.13;4.55;;;;;;;15.58;75.85;100681.34;10471326;28;20037;-83
2023/09/23 03:21:45;;;;;;;8.18;4.88;;;;;;;15.53;76.27;100681.47;10506937;28;20048;-83
2023/09/23 03:26:47;;;;;;;;;;;;;;;15.51;76.64;100680.16;10470429;28;20041;-83
2023/09/23 03:31:49;;;;;;;10.98;5.03;;;;;;;15.47;76.65;100668.09;10472322;28;19925;-84
2023/09/23 03:36:53;;;;;;;11.23;5.50;;;;;;;15.39;77.10;100678.75;10482395;28;20045;-82
2023/09/23 03:41:56;;;;;;;8.52;4.90;;;;;;;15.39;76.98;100675.16;10471171;28;20045;-83
2023/09/23 03:47:00;;;;;;;7.38;4.90;;;;;;;15.35;77.20;100677.75;10452199;28;20045;-83
2023/09/23 03:52:05;;;;;;;9.85;5.55;;;;;;;15.34;77.26;100683.59;10474347;28;20041;-83
2023/09/23 03:57:08;;;;;;;5.93;4.03;;;;;;;15.26;77.66;100676.03;10476470;28;20048;-84
2023/09/23 04:02:10;;;;;;;9.02;5.03;;;;;;;15.26;77.82;100684.31;10486375;28;20037;-83
2023/09/23 04:07:15;;;;;;;8.25;5.80;;;;;;;15.45;77.14;100685.00;10469455;28;20094;-82
2023/09/23 04:12:18;;;;;;;6.35;4.70;;;;;;;15.77;75.66;100672.88;10502852;28;20127;-82
2023/09/23 04:17:20;;;;;;;9.88;5.22;;;;;;;15.97;74.91;100672.38;10483563;28;20054;-82
2023/09/23 04:22:22;;;;;;;11.23;4.97;;;;;;;16.23;73.96;100666.16;10525887;28;20040;-83
2023/09/23 04:27:26;;;;;;;8.02;4.88;;;;;;;16.50;72.91;100663.19;10509015;28;20043;-82
2023/09/23 04:32:28;;;;;;;5.47;4.45;;;;;;;17.20;70.66;100666.16;10507594;28;20426;-82
2023/09/23 04:37:33;;;;;;;7.15;4.53;;;;;;;17.43;68.74;100657.34;10527382;28;20040;-83
2023/09/23 04:42:41;;;;;;;6.82;4.63;;;;;;;17.37;68.88;100655.06;10466237;28;20550;-83
2023/09/23 04:47:47;;;;;;;6.18;4.68;;;;;;;17.52;68.34;100651.78;10473545;28;20196;-83
2023/09/23 04:52:50;;;;;;;8.15;4.22;;;;;;;17.56;67.97;100651.97;10522564;28;20049;-83
2023/09/23 04:57:55;;;;;;;9.02;4.57;;;;;;;18.24;66.05;100656.59;10477032;28;20040;-84
2023/09/23 05:02:57;;;;;;;6.25;4.82;;;;;;;18.53;65.43;100652.19;10506473;28;20032;-83
2023/09/23 05:08:00;;;;;;;12.85;6.55;;;;;;;19.07;64.68;100649.63;10525415;28;20044;-83
2023/09/23 05:13:05;;;;;;;12.07;5.38;;;;;;;19.95;60.43;100663.28;10517931;28;20045;-84
2023/09/23 05:18:08;;;;;;;6.78;4.97;;;;;;;20.61;59.15;100665.97;10457731;28;20050;-83
2023/09/23 05:23:11;;;;;;;9.82;4.53;;;;;;;20.49;58.21;100665.19;10529185;28;20050;-83
2023/09/23 05:28:13;;;;;;;8.57;5.32;;;;;;;20.33;58.52;100676.97;10494139;28;20052;-83
2023/09/23 05:33:15;;;;;;;5.45;4.68;;;;;;;20.52;58.73;100662.50;10506228;28;20029;-83
2023/09/23 05:38:19;;;;;;;10.40;4.43;;;;;;;20.63;58.05;100683.16;10467696;28;20383;-83
2023/09/23 05:43:21;;;;;;;8.95;4.72;;;;;;;21.68;55.28;100666.50;10494957;28;20048;-83
2023/09/23 05:48:24;;;;;;;6.95;5.03;;;;;;;20.96;55.59;100662.72;10515215;28;20036;-83
2023/09/23 05:53:26;;;;;;;5.57;4.00;;;;;;;21.21;55.41;100647.56;10498084;28;20045;-83
2023/09/23 05:58:29;;;;;;;7.93;4.80;;;;;;;20.92;56.24;100639.47;10457429;28;20045;-83
2023/09/23 06:03:31;;;;;;;7.45;4.95;;;;;;;21.69;54.56;100631.81;10480101;28;20044;-83
2023/09/23 06:08:33;;;;;;;7.20;4.70;;;;;;;21.87;54.18;100647.13;10528676;28;20523;-83
2023/09/23 06:13:36;;;;;;;6.35;5.00;;;;;;;21.23;56.03;100639.66;10532691;28;20040;-83
2023/09/23 06:18:38;;;;;;;9.95;5.60;;;;;;;21.82;54.68;100636.19;10514463;28;20068;-83
2023/09/23 06:23:40;;;;;;;11.00;5.45;;;;;;;21.75;54.50;100636.00;10495103;28;20416;-84
2023/09/23 06:28:45;;;;;;;6.53;4.40;;;;;;;21.50;53.86;100626.91;10473836;28;20041;-83
2023/09/23 06:33:47;;;;;;;10.48;4.53;;;;;;;21.62;54.21;100638.03;10471493;28;20048;-84
2023/09/23 06:38:50;;;;;;;13.15;5.20;;;;;;;22.26;53.09;100641.78;10504146;28;20044;-84
2023/09/23 06:43:52;;;;;;;6.22;4.70;;;;;;;23.41;50.20;100630.09;10508822;28;20036;-84
2023/09/23 06:48:54;;;;;;;8.02;4.95;;;;;;;23.40;50.18;100633.25;10529992;28;20041;-84
2023/09/23 06:53:56;;;;;;;5.18;4.68;;;;;;;23.63;49.03;100636.19;10529870;28;20052;-84
2023/09/23 06:58:59;;;;;;;9.18;4.82;;;;;;;23.42;50.57;100626.09;10519635;28;20037;-83
2023/09/23 07:04:02;;;;;;;8.45;4.30;;;;;;;23.21;49.63;100627.66;10508736;28;20040;-85
2023/09/23 07:09:05;;;;;;;5.93;4.85;;;;;;;23.29;49.19;100633.06;10491956;28;20040;-82
2023/09/23 07:14:11;;;;;;;6.57;4.22;;;;;;;24.82;47.08;100624.69;10479853;28;20048;-84
2023/09/23 07:19:13;;;;;;;5.68;4.28;;;;;;;25.11;45.79;100627.94;10493933;28;20056;-84
2023/09/23 07:24:16;;;;;;;7.97;4.10;;;;;;;23.85;48.38;100629.00;10519640;28;20507;-84
2023/09/23 07:29:18;;;;;;;6.18;4.55;;;;;;;25.07;45.70;100616.66;10491617;28;20041;-83
2023/09/23 07:34:20;;;;;;;7.20;4.18;;;;;;;25.10;45.74;100620.69;10467905;28;20040;-83
2023/09/23 07:39:23;;;;;;;5.38;4.45;;;;;;;25.13;46.06;100623.53;10493911;28;20507;-84
2023/09/23 07:44:25;;;;;;;6.28;4.22;;;;;;;25.19;45.45;100610.00;10481849;28;20491;-93
2023/09/23 07:49:28;;;;;;;6.15;4.00;;;;;;;24.58;46.51;100619.50;10463721;28;20036;-84
2023/09/23 07:54:30;;;;;;;6.70;4.38;;;;;;;24.12;47.09;100625.09;10486299;28;20055;-86
2023/09/23 07:59:32;;;;;;;8.32;4.70;;;;;;;25.22;44.27;100604.44;10453015;28;20041;-86
2023/09/23 08:04:35;;;;;;;8.00;3.35;;;;;;;25.16;44.74;100605.94;10463114;28;20036;-84
2023/09/23 08:09:37;;;;;;;8.20;4.03;;;;;;;24.26;46.64;100596.50;10461005;28;20050;-84
2023/09/23 08:14:40;;;;;;;5.32;4.00;;;;;;;24.55;46.27;100586.59;10510399;28;20041;-84
2023/09/23 08:19:43;;;;;;;6.68;4.47;;;;;;;25.65;43.22;100590.88;10476971;28;20094;-84
2023/09/23 08:24:46;;;;;;;7.10;4.00;;;;;;;24.18;46.45;100598.38;10492332;28;20532;-85
2023/09/23 08:29:49;;;;;;;5.47;4.10;;;;;;;24.10;46.92;100588.22;10508368;28;20040;-89
2023/09/23 08:34:52;;;;;;;4.95;4.20;;;;;;;24.43;46.71;100572.75;10523270;28;20104;-85
2023/09/23 08:39:54;;;;;;;5.93;4.40;;;;;;;24.59;45.06;100581.81;10509941;28;20047;-85
2023/09/23 08:44:57;;;;;;;8.10;3.80;;;;;;;24.53;45.90;100572.94;10475476;28;20059;-85
2023/09/23 08:50:00;;;;;;;7.53;4.60;;;;;;;23.47;47.26;100566.22;10485723;28;20041;-85
2023/09/23 08:55:04;;;;;;;4.25;3.63;;;;;;;23.98;47.04;100566.00;10566574;28;20047;-85
2023/09/23 09:00:10;;;;;;;5.97;4.05;;;;;;;22.66;49.40;100565.25;10506921;28;20593;-92
2023/09/23 09:05:14;;;;;;;7.10;3.85;;;;;;;21.89;51.73;100558.16;10505178;28;20056;-94
2023/09/23 09:10:17;;;;;;;4.93;3.75;;;;;;;21.61;52.53;100554.59;10491751;28;20033;-92
2023/09/23 09:15:21;;;;;;;8.65;4.00;;;;;;;21.75;52.88;100556.97;10543046;28;20036;-93
2023/09/23 09:20:24;;;;;;;7.03;3.50;;;;;;;21.53;52.99;100544.44;10496328;28;20437;-89
2023/09/23 09:25:26;;;;;;;6.20;3.90;;;;;;;21.66;52.74;100541.19;10534325;28;20036;-88
2023/09/23 09:30:28;;;;;;;5.72;4.07;;;;;;;21.70;53.00;100544.09;10552730;28;20045;-92
2023/09/23 09:35:31;;;;;;;7.53;3.70;;;;;;;21.79;52.49;100532.72;10514339;28;20311;-88
2023/09/23 09:40:33;;;;;;;6.80;3.13;;;;;;;21.87;51.50;100535.38;10534119;28;20046;-88
2023/09/23 09:45:40;;;;;;;4.03;2.97;;;;;;;21.97;51.75;100517.22;10529634;28;20039;-88
2023/09/23 09:50:43;;;;;;;7.13;3.95;;;;;;;22.24;51.62;100515.53;10511903;28;20043;-85
2023/09/23 09:55:46;;;;;;;6.35;3.70;;;;;;;22.35;51.13;100515.78;10534791;28;20056;-85
2023/09/23 10:00:52;;;;;;;5.45;3.13;;;;;;;22.43;50.16;100512.78;10492820;28;20043;-91
2023/09/23 10:06:00;;;;;;;5.13;3.67;;;;;;;22.59;50.57;100503.56;10504975;28;20042;-84
2023/09/23 10:11:03;;;;;;;5.63;3.97;;;;;;;22.83;50.48;100517.31;10508593;28;20403;-87
2023/09/23 10:16:17;;;;;;;8.40;3.38;;;;;;;22.94;50.03;100503.53;10498147;28;20043;-87
2023/09/23 10:21:24;;;;;;;8.98;4.47;;;;;;;22.94;48.87;100511.94;10513692;28;20056;-87
2023/09/23 10:26:28;;;;;;;4.97;3.72;;;;;;;22.82;49.00;100498.88;10477330;28;20037;-87
2023/09/23 10:31:32;;;;;;;5.63;3.83;;;;;;;22.97;48.73;100509.22;10469470;28;20041;-87
2023/09/23 10:36:36;;;;;;;7.35;3.08;;;;;;;23.09;48.69;100502.66;10471927;28;20048;-87
2023/09/23 10:41:40;;;;;;;8.18;3.70;;;;;;;23.17;48.68;100499.63;10457733;28;20037;-87
2023/09/23 10:46:42;;;;;;;7.88;4.70;;;;;;;23.31;49.14;100498.28;10524793;28;20685;-87
2023/09/23 10:51:44;;;;;;;5.00;3.65;;;;;;;23.36;47.60;100489.56;10512912;28;20036;-87
2023/09/23 10:56:46;;;;;;;6.03;3.80;;;;;;;23.32;48.05;100472.72;10479819;28;20044;-86
2023/09/23 11:01:49;;;;;;;4.65;3.40;;;;;;;23.35;48.05;100476.75;10489678;28;20045;-88
2023/09/23 11:06:51;;;;;;;5.38;4.00;;;;;;;23.45;47.95;100481.75;10490518;28;20041;-87
2023/09/23 11:11:54;;;;;;;5.63;4.05;;;;;;;23.53;47.33;100483.50;10441292;28;20045;-87
2023/09/23 11:16:56;;;;;;;6.22;4.03;;;;;;;23.55;47.42;100481.13;10455228;28;20395;-87
2023/09/23 11:21:59;;;;;;;8.13;3.33;;;;;;;23.67;47.19;100475.38;10473312;28;20641;-86
2023/09/23 11:27:06;;;;;;;5.03;3.22;;;;;;;23.70;47.00;100469.03;10510724;28;20044;-86
2023/09/23 11:32:09;;;;;;;3.75;2.20;;;;;;;23.70;46.26;100457.81;10459830;28;20056;-88
2023/09/23 11:37:12;;;;;;;5.63;2.78;;;;;;;23.80;47.42;100462.00;10453340;28;20040;-87
2023/09/23 11:42:14;;;;;;;4.68;3.47;;;;;;;23.70;47.40;100471.00;10490077;28;20496;-88
2023/09/23 11:47:17;;;;;;;5.63;3.45;;;;;;;23.71;47.45;100464.22;10469632;28;20037;-87
2023/09/23 11:52:20;;;;;;;9.02;3.15;;;;;;;23.58;48.02;100449.59;10470852;28;20474;-87
2023/09/23 11:57:22;;;;;;;2.75;2.30;;;;;;;23.54;48.28;100454.28;10436607;28;20041;-88
2023/09/23 12:02:25;;;;;;;4.63;3.53;;;;;;;23.49;48.34;100451.81;10486558;28;20056;-86
2023/09/23 12:07:28;;;;;;;3.05;2.78;;;;;;;23.49;48.84;100467.81;10469647;28;20578;-87
2023/09/23 12:12:31;;;;;;;4.90;3.50;;;;;;;23.49;49.10;100451.81;10465844;28;20048;-87
2023/09/23 12:17:35;;;;;;;6.05;3.47;;;;;;;23.43;49.42;100459.72;10451923;28;20048;-87
2023/09/23 12:22:41;;;;;;;7.97;3.97;;;;;;;23.47;49.18;100459.78;10436335;28;20069;-87
2023/09/23 12:27:44;;;;;;;9.97;3.83;;;;;;;23.45;49.00;100459.34;10468825;28;20056;-87
2023/09/23 12:32:46;;;;;;;4.88;3.08;;;;;;;23.44;49.04;100463.34;10485002;28;20071;-87
2023/09/23 12:37:49;;;;;;;4.25;2.78;;;;;;;23.44;49.11;100454.94;10468428;28;20037;-86
2023/09/23 12:42:51;;;;;;;4.57;2.40;;;;;;;23.46;49.34;100453.38;10450264;28;20052;-88
2023/09/23 12:47:53;;;;;;;7.05;3.70;;;;;;;23.50;48.52;100452.63;10437869;28;20407;-87
2023/09/23 12:52:56;;;;;;;5.47;3.55;;;;;;;23.59;49.18;100448.41;10443521;28;20056;-87
2023/09/23 12:57:58;;;;;;;7.38;4.20;;;;;;;23.65;49.00;100446.94;10459046;28;20052;-87
2023/09/23 13:03:01;;;;;;;7.03;3.50;;;;;;;23.75;48.79;100435.06;10475231;28;20500;-88
2023/09/23 13:08:06;;;;;;;5.45;3.58;;;;;;;23.81;49.25;100420.78;10493687;28;20033;-86
2023/09/23 13:13:08;;;;;;;5.10;3.60;;;;;;;23.85;49.28;100424.44;10493271;28;20041;-87
2023/09/23 13:18:11;;;;;;;5.22;3.22;;;;;;;23.66;49.50;100402.91;10512027;28;20036;-87
2023/09/23 13:23:14;;;;;;;6.55;4.30;;;;;;;23.45;50.04;100420.16;10500051;28;20052;-87
2023/09/23 13:28:16;;;;;;;3.67;3.17;;;;;;;23.38;50.23;100420.81;10500021;28;20040;-86
2023/09/23 13:33:22;;;;;;;4.45;2.90;;;;;;;23.27;50.57;100407.81;10483143;28;20048;-87
2023/09/23 13:38:24;;;;;;;7.35;3.60;;;;;;;23.27;50.52;100399.44;10483553;28;20506;-87
2023/09/23 13:43:27;;;;;;;7.38;3.58;;;;;;;23.25;50.68;100404.56;10533750;28;20688;-87
2023/09/23 13:48:29;;;;;;;8.43;3.28;;;;;;;23.23;50.66;100410.53;10533485;28;20040;-87
2023/09/23 13:53:31;;;;;;;5.93;3.90;;;;;;;23.12;51.92;100409.53;10482279;28;20048;-87
2023/09/23 13:58:34;;;;;;;5.95;3.60;;;;;;;23.04;52.29;100399.38;10491343;28;20033;-87
2023/09/23 14:03:36;;;;;;;6.93;5.18;;;;;;;22.94;52.12;100397.22;10498349;28;20045;-88
2023/09/23 14:08:38;;;;;;;6.50;4.07;;;;;;;22.93;53.09;100409.59;10529254;28;20040;-87
2023/09/23 14:13:40;;;;;;;9.30;4.15;;;;;;;22.86;53.43;100405.44;10482311;28;20044;-88
2023/09/23 14:18:43;;;;;;;6.38;3.78;;;;;;;22.82;53.40;100412.97;10497798;28;20447;-88
2023/09/23 14:23:45;;;;;;;7.05;4.13;;;;;;;22.76;53.47;100413.63;10496238;28;20044;-87
2023/09/23 14:28:47;;;;;;;6.93;4.00;;;;;;;22.73;52.96;100403.94;10514276;28;20051;-87
2023/09/23 14:33:50;;;;;;;5.80;3.83;;;;;;;22.69;54.40;100397.47;10498291;28;20079;-88
2023/09/23 14:38:52;;;;;;;7.72;3.92;;;;;;;22.66;53.64;100389.03;10513897;28;20526;-87
2023/09/23 14:43:54;;;;;;;7.32;3.13;;;;;;;22.59;53.73;100402.88;10475584;28;20040;-88
2023/09/23 14:48:56;;;;;;;5.90;3.92;;;;;;;22.50;54.30;100395.50;10531223;28;20227;-88
2023/09/23 14:53:58;;;;;;;4.55;3.53;;;;;;;22.45;54.87;100395.00;10496475;28;20048;-87
2023/09/23 14:59:00;;;;;;;7.07;3.53;;;;;;;22.41;54.94;100397.72;10518061;28;20040;-87
2023/09/23 15:04:03;;;;;;;5.18;3.28;;;;;;;22.33;54.81;100389.53;10487904;28;20045;-87
2023/09/23 15:09:06;;;;;;;6.15;3.72;;;;;;;22.31;55.27;100389.91;10471278;28;20768;-88
2023/09/23 15:14:09;;;;;;;8.27;4.00;;;;;;;22.31;55.45;100389.91;10454434;28;20051;-88
2023/09/23 15:19:12;;;;;;;7.30;4.07;;;;;;;22.26;55.75;100390.19;10470983;28;20040;-87
2023/09/23 15:24:14;;;;;;;4.30;3.20;;;;;;;22.21;56.85;100382.88;10438243;28;20056;-87
2023/09/23 15:29:16;;;;;;;6.25;3.38;;;;;;;22.18;56.97;100371.63;10454132;28;20039;-87
2023/09/23 15:34:19;;;;;;;6.88;3.97;;;;;;;22.16;57.12;100365.59;10469937;28;20041;-88
2023/09/23 15:39:21;;;;;;;5.03;3.50;;;;;;;22.13;57.01;100375.53;10469839;28;20041;-87
2023/09/23 15:44:23;;;;;;;7.10;3.70;;;;;;;22.11;57.19;100382.66;10453198;28;20095;-87
2023/09/23 15:49:26;;;;;;;8.20;3.97;;;;;;;22.09;57.28;100369.06;10469700;28;20036;-87
2023/09/23 15:54:28;;;;;;;4.72;3.35;;;;;;;22.03;57.58;100369.66;10452862;28;20049;-87
2023/09/23 15:59:31;;;;;;;5.13;2.97;;;;;;;22.02;57.18;100368.03;10452641;28;20059;-88
2023/09/23 16:04:33;;;;;;;4.38;3.08;;;;;;;21.98;56.93;100368.78;10437995;28;20045;-88
2023/09/23 16:09:35;;;;;;;7.93;3.60;;;;;;;21.98;57.31;100370.78;10452483;28;20052;-87
2023/09/23 16:14:37;;;;;;;9.50;3.25;;;;;;;21.97;57.22;100383.94;10435749;28;20531;-88
2023/09/23 16:19:39;;;;;;;4.20;2.65;;;;;;;21.96;57.23;100371.13;10451976;28;20037;-88
2023/09/23 16:24:42;;;;;;;4.05;2.90;;;;;;;21.92;57.24;100370.25;10451049;28;20049;-88
2023/09/23 16:29:44;;;;;;;5.50;3.30;;;;;;;21.93;56.92;100371.06;10435629;28;20512;-87
2023/09/23 16:34:47;;;;;;;4.85;3.20;;;;;;;21.92;57.17;100380.63;10452252;28;20041;-87
2023/09/23 16:39:49;;;;;;;10.40;4.10;;;;;;;21.86;57.85;100376.47;10458456;28;20037;-88
2023/09/23 16:44:51;;;;;;;3.60;2.63;;;;;;;21.86;57.59;100373.66;10468915;28;20060;-87
2023/09/23 16:49:53;;;;;;;7.00;3.17;;;;;;;21.84;57.05;100373.22;10452039;28;20053;-88
2023/09/23 16:54:56;;;;;;;6.07;2.95;;;;;;;21.78;57.71;100381.09;10477263;28;20049;-88
2023/09/23 16:59:58;;;;;;;4.72;3.10;;;;;;;21.39;61.26;100391.31;10466758;28;20412;-88
2023/09/23 17:05:00;;;;;;;3.03;2.47;;;;;;;20.62;65.63;100413.88;10451399;28;20048;-88
2023/09/23 17:10:02;;;;;;;5.57;2.80;;;;;;;19.64;72.44;100413.22;10451336;28;20037;-88
2023/09/23 17:15:05;;;;;;;7.20;2.75;;;;;;;19.21;75.01;100399.81;10467398;28;20439;-87
2023/09/23 17:20:08;;;;;;;6.32;3.38;;;;;;;19.15;76.46;100396.44;10450871;28;20045;-87
2023/09/23 17:25:10;;;;;;;5.15;2.65;;;;;;;19.24;75.35;100399.94;10434738;28;20041;-87
2023/09/23 17:30:13;;;;;;;4.03;2.88;;;;;;;19.35;74.62;100388.34;10450575;28;20045;-87
2023/09/23 17:35:16;;;;;;;5.18;3.03;;;;;;;19.46;74.00;100389.53;10498071;28;20044;-87
2023/09/23 17:40:19;;;;;;;6.22;3.33;;;;;;;19.69;71.80;100392.69;10463956;28;20051;-87
2023/09/23 17:45:21;;;;;;;4.45;2.97;;;;;;;19.82;71.39;100385.97;10492217;28;20045;-88
2023/09/23 17:50:23;;;;;;;7.43;3.47;;;;;;;19.89;70.59;100386.19;10455242;28;20040;-87
2023/09/23 17:55:25;;;;;;;4.32;3.03;;;;;;;19.94;70.33;100391.50;10473904;28;20052;-88
2023/09/23 18:00:29;;;;;;;4.80;3.00;;;;;;;20.02;70.07;100384.19;10457688;28;20041;-87
2023/09/23 18:05:32;;;;;;;4.82;2.97;;;;;;;20.04;69.76;100388.25;10491582;28;20045;-87
2023/09/23 18:10:35;;;;;;;5.05;3.45;;;;;;;20.06;68.36;100385.09;10456997;28;20114;-87
2023/09/23 18:15:37;;;;;;;6.38;3.25;;;;;;;20.13;69.34;100390.88;10490202;28;20052;-87
2023/09/23 18:20:40;;;;;;;5.40;3.13;;;;;;;20.09;69.27;100401.13;10457167;28;20044;-87
2023/09/23 18:25:42;;;;;;;5.35;3.15;;;;;;;20.08;69.80;100389.16;10473106;28;20037;-87
2023/09/23 18:30:44;;;;;;;5.72;3.58;;;;;;;20.02;70.54;100393.38;10441344;28;20036;-87
2023/09/23 18:35:47;;;;;;;5.97;3.13;;;;;;;20.02;70.94;100398.94;10458944;28;20131;-86
2023/09/23 18:40:49;;;;;;;5.72;3.38;;;;;;;19.98;71.27;100403.59;10466805;28;20041;-86
2023/09/23 18:45:53;;;;;;;7.00;3.33;;;;;;;20.00;71.53;100404.03;10436648;28;20068;-86
2023/09/23 18:50:58;;;;;;;5.10;2.70;;;;;;;19.99;72.30;100387.69;10440135;28;20040;-87
2023/09/23 18:56:01;;;;;;;6.32;3.22;;;;;;;19.96;72.25;100392.00;10492350;28;20048;-87
2023/09/23 19:01:03;;;;;;;6.93;3.67;;;;;;;19.94;72.49;100404.63;10479650;28;20067;-86
2023/09/23 19:06:06;;;;;;;4.90;3.20;;;;;;;19.94;72.31;100399.03;10496302;28;20503;-86
2023/09/23 19:11:09;;;;;;;6.72;3.75;;;;;;;19.91;72.43;100403.34;10512835;28;20056;-86
2023/09/23 19:16:11;;;;;;;4.28;3.08;;;;;;;19.91;73.02;100399.75;10469192;28;20040;-86
2023/09/23 19:21:14;;;;;;;7.78;3.25;;;;;;;19.91;72.82;100402.53;10470045;28;20044;-86
2023/09/23 19:26:16;;;;;;;7.47;3.42;;;;;;;19.91;73.26;100392.22;10470927;28;20033;-86
2023/09/23 19:31:19;;;;;;;7.57;3.78;;;;;;;19.87;73.38;100399.66;10437690;28;20613;-86
2023/09/23 19:36:21;;;;;;;4.95;3.28;;;;;;;19.86;73.37;100404.41;10454099;28;20041;-86
2023/09/23 19:41:24;;;;;;;8.07;3.05;;;;;;;19.85;73.37;100404.75;10493222;28;20048;-86
2023/09/23 19:46:26;;;;;;;7.13;3.55;;;;;;;19.84;73.87;100403.13;10470638;28;20146;-86
2023/09/23 19:51:30;;;;;;;5.93;3.40;;;;;;;19.85;73.88;100407.53;10437047;28;20085;-87
2023/09/23 19:56:33;;;;;;;4.60;2.97;;;;;;;19.85;74.62;100399.19;10468112;28;20044;-86
2023/09/23 20:01:46;;;;;;;4.88;3.45;;;;;;;19.80;74.78;100405.81;10452495;28;20041;-86
2023/09/23 20:06:48;;;;;;;6.20;3.20;;;;;;;19.83;74.33;100416.25;10436264;28;20045;-86
2023/09/23 20:11:51;;;;;;;6.00;3.20;;;;;;;19.80;74.77;100405.81;10436158;28;20044;-86
2023/09/23 20:16:56;;;;;;;5.78;3.42;;;;;;;19.79;74.51;100406.16;10486535;28;20047;-86
2023/09/23 20:21:59;;;;;;;5.32;3.53;;;;;;;19.76;74.99;100398.47;10486576;28;20049;-86
2023/09/23 20:27:02;;;;;;;9.75;3.95;;;;;;;19.74;75.36;100398.03;10469063;28;20136;-87
2023/09/23 20:32:04;;;;;;;6.85;3.72;;;;;;;19.71;75.66;100390.38;10487403;28;20597;-86
2023/09/23 20:37:07;;;;;;;6.28;3.58;;;;;;;19.69;76.07;100390.72;10468485;28;20041;-86
2023/09/23 20:42:09;;;;;;;5.93;3.53;;;;;;;19.70;76.07;100406.25;10452186;28;20519;-85
2023/09/23 20:47:12;;;;;;;7.55;3.70;;;;;;;19.65;76.38;100391.78;10485963;28;20504;-86
2023/09/23 20:52:14;;;;;;;5.55;3.72;;;;;;;19.61;77.37;100405.56;10468111;28;20094;-86
2023/09/23 20:57:17;;;;;;;5.13;3.50;;;;;;;19.55;77.95;100398.59;10451688;28;20044;-86
2023/09/23 21:02:19;;;;;;;3.95;2.80;;;;;;;19.46;78.71;100398.69;10487479;28;20045;-86
2023/09/23 21:07:22;;;;;;;6.63;3.83;;;;;;;19.37;79.78;100395.19;10466060;28;20048;-87
2023/09/23 21:12:24;;;;;;;5.97;4.22;;;;;;;19.21;81.15;100385.91;10442797;28;20044;-86
2023/09/23 21:17:26;;;;;;;6.32;3.35;;;;;;;19.18;82.08;100389.38;10493519;28;20041;-86
2023/09/23 21:22:28;;;;;;;6.07;3.55;;;;;;;19.14;82.18;100389.25;10459057;28;20401;-86
2023/09/23 21:27:31;;;;;;;12.30;4.63;;;;;;;19.02;82.70;100394.78;10459182;28;20041;-85
2023/09/23 21:32:33;;;;;;;9.25;4.80;;;;;;;18.63;83.35;100396.16;10458674;28;20048;-85
2023/09/23 21:37:36;;;;;;;8.68;4.20;;;;;;;18.27;85.94;100403.13;10459107;28;20043;-86
2023/09/23 21:42:38;;;;;;;6.40;4.07;;;;;;;17.74;89.84;100426.84;10491324;28;20048;-85
2023/09/23 21:47:40;;;;;;;1.55;0.73;;;;;;;17.26;94.08;100437.44;10474838;28;20041;-86
2023/09/23 21:52:43;;;;;;;1.65;1.48;;;;;;;17.11;98.25;100428.50;10474177;28;20451;-86
2023/09/23 21:57:48;;;;;;;0.70;0.30;;;;;;;16.83;99.35;100435.56;10474202;28;20041;-86
2023/09/23 22:02:50;;;;;;;1.30;1.20;;;;;;;16.78;100.00;100419.94;10473909;28;20055;-86
2023/09/23 22:07:54;;;;;;;0.47;0.47;;;;;;;16.66;100.00;100430.84;10474117;28;20045;-86
2023/09/23 22:12:56;;;;;;;0.40;0.40;;;;;;;16.55;100.00;100419.28;10490768;28;20045;-85
2023/09/23 22:17:58;;;;;;;0.50;0.43;;;;;;;16.47;100.00;100414.53;10473774;28;20043;-86
2023/09/23 22:23:01;;;;;;;0.88;0.68;;;;;;;16.48;100.00;100416.16;10489902;28;20518;-86
2023/09/23 22:28:03;;;;;;;0.20;0.20;;;;;;;16.42;100.00;100414.69;10490974;28;20032;-86
2023/09/23 22:33:06;;;;;;;0.32;0.32;;;;;;;16.44;100.00;100417.97;10490575;28;20044;-85
2023/09/23 22:38:09;;;;;;;0.20;0.20;;;;;;;16.40;100.00;100430.03;10458708;28;20041;-85
2023/09/23 22:43:11;;;;;;;0.60;0.60;;;;;;;16.29;100.00;100438.63;10483484;28;20040;-84
2023/09/23 22:48:13;;;;;;;1.08;0.75;;;;;;;16.32;100.00;100426.13;10520601;28;20029;-85
2023/09/23 22:53:17;;;;;;;0.25;0.25;;;;;;;16.28;100.00;100412.09;10487125;28;20060;-84
2023/09/23 22:58:19;;;;;;;0.10;0.10;;;;;;;16.25;100.00;100418.28;10510344;28;20039;-84
2023/09/23 23:03:22;;;;;;;0.98;0.40;;;;;;;16.17;100.00;100440.44;10506338;28;20047;-85
2023/09/23 23:08:27;;;;;;;0.40;0.32;;;;;;;16.21;100.00;100441.41;10484917;28;20055;-86
2023/09/23 23:13:30;;;;;;;0.30;0.30;;;;;;;16.18;100.00;100442.06;10498640;28;20036;-85